Aérodrome :
LOGIN :

S'inscrire | Disclaimer

   EN    FR    IT 

 










Légende :    VFR   VFR Marginal   IFR   IFR Intensif   IFR Très Intensif
Visi : 
Plafond : 
>= 8 km
>= 3000ft
5 à 8 km
1000 à 3000 ft
1500m à 5 km
500 à 1000 ft
800 à 1500m
200 à 500 ft
< 800m
< 200 ft
Symboles :   Orages  Brouillard  Fortes neiges  Fortes précipitations  Vent > 20 kt
SIGMETs :   Divers  Orages  Givrage  Turbulence  Onde Orograph.  Cendres Volcan.






- Altitude de l'aérodrome : 117 ft
- Code IATA : NWI


EGSH - Norwich

DERNIER METAR :
  • 302320Z AUTO 32014KT 9999 SCT026/// BKN032/// BKN038/// 07/04 Q1019

METARs EXPIRÉS :
  • 302250Z AUTO 32014KT 280V350 9999 BKN021/// BKN026/// BKN032/// 07/04 Q1018
  • 302220Z AUTO 32013KT 290V360 9999 FEW002/// SCT018/// BKN025/// 07/05 Q1018
  • 302150Z AUTO 32012KT 280V360 9999 FEW007/// SCT027/// 08/05 Q1018
  • 302120Z AUTO 32011KT 290V360 9999 FEW022/// SCT048/// 08/04 Q1018
  • 302050Z AUTO 33012KT 290V010 9999 FEW020/// SCT025/// BKN031/// 08/05 Q1017

TAF TAF EGSH
Valide du 01 à 00h jusqu'au 01 à 09h UTC


302252Z 0100/0109 32012KT 9999 SCT020
PROB40
TEMPO 0100/0109 34015G25KT 7000 SHRA BKN012
ATIS : +44 1603 420 640



MET'MAP, la Météo Aéronautique d'un coup d'oeil ! - Copyright ORBIFLY Décembre 2007 - Disclaimer

ORBIFLY MET'MAP TEAM :

Programmation & Développement : Alexandra Zaïnal
Sur une idée originale de : Baudouin d'Aumeries
Assistance à la programmation : Marc-Olivier Méhu
Soutien technique & logistique : Manuel Goepfert

Contact : metmap@orbifly.com




SOURCES & CREDITS :

   NOAA